Time;durP1;ratioP1;P1;durP2;ratioP2;P2;SDS_P1;SDS_P2;PMS_P1;PMS_P2;Temp;Humidity;BMP_temperature;BMP_pressure;BME280_temperature;BME280_humidity;BME280_pressure;Samples;Min_cycle;Max_cycle;Signal;HPM_P1;HPM_P2
2023/03/07 00:00:25;;;;;;;39.43;18.40;;;;;;;;;;4997921;28;20267;-72
2023/03/07 00:02:50;;;;;;;36.55;16.85;;;;;;;;;;4982534;28;20267;-71
2023/03/07 00:05:16;;;;;;;38.75;16.92;;;;;;;;;;4997556;28;20092;-70
2023/03/07 00:07:41;;;;;;;32.78;16.42;;;;;;;;;;5002553;28;20069;-70
2023/03/07 00:10:07;;;;;;;35.37;17.03;;;;;;;;;;5000679;28;20029;-69
2023/03/07 00:12:32;;;;;;;36.00;17.08;;;;;;;;;;5002503;28;20682;-72
2023/03/07 00:14:57;;;;;;;32.83;16.33;;;;;;;;;;4999228;28;20029;-71
2023/03/07 00:17:22;;;;;;;35.07;17.33;;;;;;;;;;4999782;28;20060;-71
2023/03/07 00:19:48;;;;;;;34.50;16.90;;;;;;;;;;5000770;28;20054;-71
2023/03/07 00:22:13;;;;;;;33.97;16.77;;;;;;;;;;5001104;28;20045;-71
2023/03/07 00:24:38;;;;;;;34.30;16.27;;;;;;;;;;4982576;28;20744;-72
2023/03/07 00:27:04;;;;;;;37.33;17.23;;;;;;;;;;5000782;28;20034;-71
2023/03/07 00:29:29;;;;;;;34.08;17.30;;;;;;;;;;5001519;28;20030;-71
2023/03/07 00:31:54;;;;;;;38.27;17.07;;;;;;;;;;5000867;28;20025;-69
2023/03/07 00:34:20;;;;;;;38.90;16.60;;;;;;;;;;4998338;28;20444;-71
2023/03/07 00:36:45;;;;;;;35.33;16.63;;;;;;;;;;4998390;28;20091;-71
2023/03/07 00:39:10;;;;;;;35.67;16.75;;;;;;;;;;5001114;28;20279;-71
2023/03/07 00:41:35;;;;;;;33.10;17.43;;;;;;;;;;5000311;28;20713;-70
2023/03/07 00:44:01;;;;;;;38.23;17.57;;;;;;;;;;4982494;28;20283;-70
2023/03/07 00:46:26;;;;;;;33.43;16.80;;;;;;;;;;5001639;28;20291;-71
2023/03/07 00:48:52;;;;;;;36.42;17.67;;;;;;;;;;4999727;28;20284;-70
2023/03/07 00:51:18;;;;;;;35.08;16.25;;;;;;;;;;4981586;28;20027;-70
2023/03/07 00:53:43;;;;;;;37.58;18.45;;;;;;;;;;4999068;28;20088;-69
2023/03/07 00:56:11;;;;;;;36.45;16.70;;;;;;;;;;4999203;28;20428;-70
2023/03/07 00:58:37;;;;;;;36.40;17.10;;;;;;;;;;5000718;28;20072;-71
2023/03/07 01:01:03;;;;;;;31.27;17.27;;;;;;;;;;5002220;28;20038;-70
2023/03/07 01:03:29;;;;;;;34.58;16.75;;;;;;;;;;4997974;28;20084;-71
2023/03/07 01:05:54;;;;;;;33.08;17.20;;;;;;;;;;4990293;28;20317;-71
2023/03/07 01:08:20;;;;;;;32.33;16.75;;;;;;;;;;4998925;28;20046;-71
2023/03/07 01:10:47;;;;;;;34.78;18.13;;;;;;;;;;5000343;28;20031;-71
2023/03/07 01:13:13;;;;;;;33.85;17.38;;;;;;;;;;4998323;28;20112;-72
2023/03/07 01:15:38;;;;;;;36.72;17.60;;;;;;;;;;4988964;28;20018;-71
2023/03/07 01:18:04;;;;;;;33.83;17.33;;;;;;;;;;4998980;28;20051;-71
2023/03/07 01:20:34;;;;;;;38.13;18.48;;;;;;;;;;4999521;28;20264;-70
2023/03/07 01:22:59;;;;;;;37.10;18.98;;;;;;;;;;4998449;28;20062;-74
2023/03/07 01:25:24;;;;;;;35.78;18.10;;;;;;;;;;5003159;28;20575;-72
2023/03/07 01:27:54;;;;;;;38.13;17.02;;;;;;;;;;4998205;28;20064;-71
2023/03/07 01:30:19;;;;;;;;;;;;;;;;;;4980862;28;20396;-71
2023/03/07 01:32:44;;;;;;;38.03;17.10;;;;;;;;;;4997128;28;20265;-71
2023/03/07 01:35:10;;;;;;;38.92;17.83;;;;;;;;;;4979073;28;20426;-72
2023/03/07 01:37:35;;;;;;;32.93;16.03;;;;;;;;;;4995651;28;20037;-71
2023/03/07 01:40:00;;;;;;;34.17;16.65;;;;;;;;;;4999477;28;20026;-71
2023/03/07 01:42:28;;;;;;;38.97;16.90;;;;;;;;;;4998325;28;20033;-71
2023/03/07 01:44:58;;;;;;;33.35;16.42;;;;;;;;;;4996759;28;20124;-71
2023/03/07 01:47:23;;;;;;;36.00;16.63;;;;;;;;;;4978524;28;20026;-72
2023/03/07 01:49:48;;;;;;;36.77;17.90;;;;;;;;;;4996698;28;20045;-71
2023/03/07 01:52:17;;;;;;;31.77;16.40;;;;;;;;;;4998022;28;20033;-71
2023/03/07 01:54:47;;;;;;;35.65;16.52;;;;;;;;;;4999884;28;20276;-71
2023/03/07 01:57:13;;;;;;;38.25;18.02;;;;;;;;;;4997927;28;20060;-71
2023/03/07 01:59:41;;;;;;;38.08;17.48;;;;;;;;;;4998270;28;20026;-70
2023/03/07 02:02:08;;;;;;;41.63;17.20;;;;;;;;;;4987351;28;20034;-71
2023/03/07 02:04:49;;;;;;;36.97;17.63;;;;;;;;;;4998539;28;20058;-71
2023/03/07 02:07:16;;;;;;;36.85;17.17;;;;;;;;;;4999522;28;20548;-71
2023/03/07 02:09:42;;;;;;;37.95;17.73;;;;;;;;;;4999240;28;20117;-71
2023/03/07 02:12:07;;;;;;;34.10;17.23;;;;;;;;;;4977779;28;20069;-71
2023/03/07 02:14:33;;;;;;;40.72;18.33;;;;;;;;;;4999935;28;20669;-71
2023/03/07 02:16:58;;;;;;;32.72;17.38;;;;;;;;;;4994809;28;20038;-71
2023/03/07 02:19:43;;;;;;;33.53;17.45;;;;;;;6.78;nan;99624.31;4979483;28;20030;-72
2023/03/07 02:22:12;;;;;;;37.03;17.98;;;;;;;6.37;nan;99561.19;4999781;28;20022;-71
2023/03/07 02:24:52;;;;;;;34.70;17.52;;;;;;;6.31;nan;99554.19;4997754;28;20057;-71
2023/03/07 02:27:18;;;;;;;35.00;18.15;;;;;;;6.28;nan;99553.84;4979143;28;20128;-72
2023/03/07 02:29:43;;;;;;;34.55;17.52;;;;;;;6.27;nan;99550.41;4979440;28;20113;-71
2023/03/07 02:32:09;;;;;;;33.85;16.83;;;;;;;6.27;nan;99542.56;4998620;28;20495;-71
2023/03/07 02:34:34;;;;;;;37.15;18.02;;;;;;;6.34;nan;99558.97;4999027;28;20034;-71
2023/03/07 02:37:09;;;;;;;34.78;17.40;;;;;;;6.37;nan;99555.16;4999675;28;20073;-71
2023/03/07 02:39:37;;;;;;;36.13;17.45;;;;;;;6.25;nan;99535.97;4998018;28;20092;-70
2023/03/07 02:42:07;;;;;;;34.92;17.02;;;;;;;6.36;nan;99556.94;4996334;28;20030;-71
2023/03/07 02:44:33;;;;;;;35.88;17.00;;;;;;;6.32;nan;99547.13;4994349;28;20026;-70
2023/03/07 02:46:58;;;;;;;32.50;16.25;;;;;;;6.21;nan;99529.59;4998017;28;20080;-70
2023/03/07 02:49:24;;;;;;;34.20;16.52;;;;;;;6.35;nan;99552.75;4996545;28;20043;-70
2023/03/07 02:51:49;;;;;;;35.33;17.23;;;;;;;6.35;nan;99549.34;4997172;28;20029;-69
2023/03/07 02:54:14;;;;;;;30.15;16.88;;;;;;;6.32;nan;99547.13;4980137;28;20451;-74
2023/03/07 02:56:41;;;;;;;35.80;17.00;;;;;;;6.44;nan;99573.38;4999153;28;20026;-71
2023/03/07 02:59:06;;;;;;;33.53;17.48;;;;;;;6.37;nan;99557.78;4994871;28;20056;-70
2023/03/07 03:01:31;;;;;;;31.45;17.52;;;;;;;6.37;nan;99550.72;4998385;28;20655;-70
2023/03/07 03:03:57;;;;;;;33.03;16.83;;;;;;;6.36;nan;99553.53;4997783;28;20076;-70
2023/03/07 03:06:23;;;;;;;31.65;16.90;;;;;;;6.41;nan;99561.53;4996745;28;20030;-69
2023/03/07 03:08:48;;;;;;;30.67;16.60;;;;;;;6.39;nan;99553.91;4998442;28;20068;-71
2023/03/07 03:11:14;;;;;;;34.78;15.95;;;;;;;6.38;nan;99546.28;4991843;28;20026;-70
2023/03/07 03:13:39;;;;;;;38.90;17.50;;;;;;;6.38;nan;99551.50;4998650;28;20022;-71
2023/03/07 03:16:05;;;;;;;34.85;17.85;;;;;;;6.35;nan;99547.53;4985169;28;20096;-71
2023/03/07 03:18:30;;;;;;;31.35;17.13;;;;;;;6.39;nan;99551.31;4978957;28;20033;-71
2023/03/07 03:20:56;;;;;;;34.22;16.58;;;;;;;6.32;nan;99544.53;4995715;28;20030;-69
2023/03/07 03:23:22;;;;;;;33.10;16.50;;;;;;;6.35;nan;99552.75;4993703;28;20105;-70
2023/03/07 03:26:00;;;;;;;28.65;15.35;;;;;;;6.32;nan;99539.31;5000151;28;20094;-70
2023/03/07 03:28:25;;;;;;;30.23;16.15;;;;;;;6.27;nan;99531.31;4997259;28;20040;-68
2023/03/07 03:30:59;;;;;;;35.78;16.67;;;;;;;6.26;nan;99529.72;4998078;28;20413;-70
2023/03/07 03:33:26;;;;;;;35.35;16.08;;;;;;;6.28;nan;99532.94;4989793;28;20030;-69
2023/03/07 03:35:52;;;;;;;30.50;16.27;;;;;;;6.24;nan;99529.16;4980510;28;20038;-70
2023/03/07 03:38:17;;;;;;;29.08;15.85;;;;;;;6.29;nan;99534.50;5000380;28;20040;-70
2023/03/07 03:40:42;;;;;;;31.42;15.48;;;;;;;6.21;nan;99537.44;4993283;28;20065;-70
2023/03/07 03:43:08;;;;;;;29.27;15.13;;;;;;;6.18;nan;99541.28;4998564;28;20033;-70
2023/03/07 03:45:33;;;;;;;29.27;13.82;;;;;;;6.16;nan;99551.16;4980008;28;20083;-70
2023/03/07 03:47:58;;;;;;;26.73;13.93;;;;;;;6.03;nan;99533.75;4992544;28;20033;-70
2023/03/07 03:50:24;;;;;;;27.40;15.18;;;;;;;6.01;nan;99538.44;4995153;28;20148;-69
2023/03/07 03:52:49;;;;;;;29.70;15.20;;;;;;;5.96;nan;99527.81;4995784;28;20033;-70
2023/03/07 03:55:14;;;;;;;31.88;15.20;;;;;;;6.07;nan;99555.84;4997066;28;20555;-70
2023/03/07 03:57:40;;;;;;;28.98;15.05;;;;;;;6.03;nan;99551.25;4996436;28;20029;-70
2023/03/07 04:00:08;;;;;;;31.00;14.80;;;;;;;6.08;nan;99548.81;4979194;28;20411;-70
2023/03/07 04:02:33;;;;;;;26.08;14.25;;;;;;;6.03;nan;99538.19;4993477;28;20053;-71
2023/03/07 04:04:58;;;;;;;30.63;14.60;;;;;;;6.05;nan;99550.03;4997420;28;20053;-70
2023/03/07 04:07:27;;;;;;;26.70;14.27;;;;;;;6.03;nan;99556.50;4974038;28;20077;-70
2023/03/07 04:09:53;;;;;;;26.70;13.85;;;;;;;5.98;nan;99546.69;4976622;28;20511;-70
2023/03/07 04:12:19;;;;;;;25.33;13.55;;;;;;;6.03;nan;99557.28;4975786;28;20035;-70
2023/03/07 04:14:44;;;;;;;28.40;14.82;;;;;;;6.05;nan;99552.66;4979319;28;20022;-72
2023/03/07 04:17:09;;;;;;;28.08;14.60;;;;;;;6.06;nan;99553.47;4976444;28;20065;-70
2023/03/07 04:19:35;;;;;;;29.80;14.60;;;;;;;6.05;nan;99544.81;4978748;28;20081;-70
2023/03/07 04:22:00;;;;;;;28.98;14.90;;;;;;;5.95;nan;99537.47;4976485;28;20520;-70
2023/03/07 04:24:25;;;;;;;27.67;14.68;;;;;;;5.96;nan;99546.91;4982412;28;20030;-71
2023/03/07 04:26:51;;;;;;;27.30;15.48;;;;;;;5.99;nan;99548.28;4978418;28;20038;-71
2023/03/07 04:29:16;;;;;;;28.42;14.07;;;;;;;5.97;nan;99547.72;4982715;28;20029;-70
2023/03/07 04:31:42;;;;;;;25.88;13.98;;;;;;;5.93;nan;99544.69;4981178;28;20109;-71
2023/03/07 04:34:07;;;;;;;25.60;13.57;;;;;;;5.97;nan;99560.78;4982292;28;20050;-70
2023/03/07 04:36:32;;;;;;;27.33;14.43;;;;;;;5.91;nan;99556.38;4982354;28;20030;-71
2023/03/07 04:38:58;;;;;;;25.27;13.02;;;;;;;5.91;nan;99559.81;4975006;28;20441;-71
2023/03/07 04:41:27;;;;;;;25.60;13.00;;;;;;;5.92;nan;99564.00;4977350;28;20085;-70
2023/03/07 04:43:52;;;;;;;25.83;14.20;;;;;;;5.87;nan;99547.38;4979555;28;20041;-71
2023/03/07 04:46:18;;;;;;;23.63;12.63;;;;;;;5.92;nan;99561.38;4982188;28;20271;-72
2023/03/07 04:48:45;;;;;;;24.35;12.63;;;;;;;5.86;nan;99548.38;4977248;28;20548;-71
2023/03/07 04:51:10;;;;;;;26.05;12.98;;;;;;;5.89;nan;99553.97;4980421;28;20837;-71
2023/03/07 04:53:36;;;;;;;23.33;12.85;;;;;;;5.82;nan;99544.59;4977372;28;20109;-71
2023/03/07 04:56:04;;;;;;;24.38;13.30;;;;;;;5.93;nan;99555.13;4978465;28;20030;-71
2023/03/07 04:58:30;;;;;;;24.48;13.35;;;;;;;5.96;nan;99565.22;4981412;28;20035;-74
2023/03/07 05:00:56;;;;;;;26.40;13.13;;;;;;;5.88;nan;99554.97;4978502;28;20113;-74
2023/03/07 05:03:23;;;;;;;23.10;12.15;;;;;;;5.92;nan;99568.44;4978278;28;20133;-71
2023/03/07 05:05:49;;;;;;;22.38;12.63;;;;;;;5.85;nan;99565.06;4979782;28;20093;-71
2023/03/07 05:08:14;;;;;;;25.40;12.27;;;;;;;5.87;nan;99570.88;4987888;28;20508;-71
2023/03/07 05:10:40;;;;;;;24.35;13.05;;;;;;;5.93;nan;99578.66;4980146;28;20477;-71
2023/03/07 05:13:06;;;;;;;30.63;13.57;;;;;;;5.95;nan;99588.94;4981043;28;20041;-72
2023/03/07 05:15:33;;;;;;;32.72;16.35;;;;;;;5.99;nan;99587.50;4981429;28;20477;-71
2023/03/07 05:17:58;;;;;;;36.40;17.73;;;;;;;6.02;nan;99584.44;4987357;28;20506;-71
2023/03/07 05:20:23;;;;;;;40.60;21.63;;;;;;;6.05;nan;99585.81;4982014;28;20102;-71
2023/03/07 05:22:49;;;;;;;42.88;22.55;;;;;;;6.12;nan;99589.19;4980967;28;20404;-72
2023/03/07 05:25:15;;;;;;;43.35;21.10;;;;;;;6.02;nan;99575.81;4980133;28;20072;-71
2023/03/07 05:27:40;;;;;;;43.55;22.38;;;;;;;6.05;nan;99589.22;4979561;28;20093;-71
2023/03/07 05:30:07;;;;;;;43.90;22.08;;;;;;;6.12;nan;99597.03;4978701;28;20030;-71
2023/03/07 05:32:32;;;;;;;37.60;18.33;;;;;;;6.00;nan;99576.00;4980036;28;20102;-73
2023/03/07 05:34:57;;;;;;;37.60;18.70;;;;;;;6.12;nan;99592.59;4989493;28;20054;-72
2023/03/07 05:37:23;;;;;;;40.33;18.83;;;;;;;6.15;nan;99596.59;4981011;28;20117;-72
2023/03/07 05:39:48;;;;;;;41.20;19.73;;;;;;;5.96;nan;99570.44;4982500;28;20026;-71
2023/03/07 05:42:14;;;;;;;39.38;19.23;;;;;;;6.09;nan;99598.25;4978089;28;20018;-72
2023/03/07 05:44:40;;;;;;;39.30;20.88;;;;;;;6.07;nan;99600.28;4985540;28;20058;-71
2023/03/07 05:47:06;;;;;;;51.83;24.85;;;;;;;6.19;nan;99616.06;4984356;28;20022;-70
2023/03/07 05:49:31;;;;;;;60.65;29.25;;;;;;;6.17;nan;99615.47;4998130;28;20026;-70
2023/03/07 05:51:56;;;;;;;56.60;27.08;;;;;;;6.07;nan;99605.50;4979024;28;20026;-71
2023/03/07 05:54:22;;;;;;;48.78;24.27;;;;;;;6.10;nan;99612.91;4977972;28;20041;-71
2023/03/07 05:56:47;;;;;;;43.58;22.98;;;;;;;6.14;nan;99618.53;4980319;28;20025;-71
2023/03/07 05:59:14;;;;;;;55.88;24.95;;;;;;;;;;4979428;28;20403;-71
2023/03/07 06:01:39;;;;;;;59.03;25.70;;;;;;;;;;4982462;28;20510;-69
2023/03/07 06:04:04;;;;;;;62.28;27.17;;;;;;;;;;4982305;28;20062;-71
2023/03/07 06:06:30;;;;;;;50.20;25.93;;;;;;;;;;4984578;28;20029;-72
2023/03/07 06:08:55;;;;;;;46.13;23.23;;;;;;;;;;5001665;28;20085;-71
2023/03/07 06:11:20;;;;;;;42.13;21.25;;;;;;;;;;4981565;28;20287;-71
2023/03/07 06:13:46;;;;;;;44.80;21.63;;;;;;;;;;5001356;28;20396;-72
2023/03/07 06:16:11;;;;;;;43.93;20.87;;;;;;;;;;5000635;28;20142;-72
2023/03/07 06:18:36;;;;;;;33.42;18.42;;;;;;;;;;5000285;28;20022;-72
2023/03/07 06:21:03;;;;;;;36.97;18.27;;;;;;;;;;4995811;28;20037;-71
2023/03/07 06:23:30;;;;;;;42.53;20.38;;;;;;;;;;4996774;28;20290;-70
2023/03/07 06:25:55;;;;;;;40.47;20.38;;;;;;;;;;4998289;28;20030;-72
2023/03/07 06:28:20;;;;;;;41.10;20.98;;;;;;;;;;4998225;28;20699;-72
2023/03/07 06:30:46;;;;;;;43.70;21.83;;;;;;;;;;4988231;28;20563;-72
2023/03/07 06:33:11;;;;;;;47.53;21.88;;;;;;;;;;4980084;28;20029;-72
2023/03/07 06:35:40;;;;;;;54.63;26.47;;;;;;;;;;4997810;28;20746;-72
2023/03/07 06:38:06;;;;;;;78.40;34.42;;;;;;;;;;4999691;28;20034;-71
2023/03/07 06:40:31;;;;;;;63.53;29.77;;;;;;;;;;4997620;28;20022;-70
2023/03/07 06:42:57;;;;;;;50.80;24.90;;;;;;;;;;4999835;28;20488;-71
2023/03/07 06:45:22;;;;;;;42.67;23.48;;;;;;;;;;5000638;28;20371;-72
2023/03/07 06:47:48;;;;;;;47.20;24.08;;;;;;;;;;5002314;28;20058;-72
2023/03/07 06:50:13;;;;;;;48.57;23.83;;;;;;;;;;4999516;28;20218;-71
2023/03/07 06:52:38;;;;;;;45.90;23.13;;;;;;;;;;4998606;28;20271;-71
2023/03/07 06:55:04;;;;;;;46.13;22.97;;;;;;;;;;4994919;28;20738;-71
2023/03/07 06:57:29;;;;;;;42.08;21.48;;;;;;;6.71;nan;99736.09;4996936;28;20283;-70
2023/03/07 06:59:55;;;;;;;44.30;22.30;;;;;;;6.21;nan;99655.88;4978823;28;20095;-70
2023/03/07 07:02:20;;;;;;;41.25;21.77;;;;;;;6.24;nan;99665.09;4981094;28;20021;-71
2023/03/07 07:04:45;;;;;;;41.00;21.75;;;;;;;6.22;nan;99664.50;4980156;28;20554;-71
2023/03/07 07:07:11;;;;;;;44.75;22.02;;;;;;;6.24;nan;99659.84;4994621;28;20181;-72
2023/03/07 07:09:36;;;;;;;53.58;24.58;;;;;;;6.16;nan;99661.72;4981195;28;20567;-72
2023/03/07 07:12:04;;;;;;;44.55;22.65;;;;;;;6.22;nan;99667.13;4998898;28;20034;-71
2023/03/07 07:14:29;;;;;;;48.28;23.55;;;;;;;6.22;nan;99667.13;4999734;28;20809;-72
2023/03/07 07:16:54;;;;;;;46.75;23.35;;;;;;;6.20;nan;99658.69;4998909;28;20081;-71
2023/03/07 07:19:20;;;;;;;48.55;24.35;;;;;;;6.27;nan;99664.66;4996998;28;20041;-71
2023/03/07 07:21:46;;;;;;;47.35;23.67;;;;;;;6.27;nan;99668.06;4996898;28;20105;-73
2023/03/07 07:24:12;;;;;;;46.67;23.92;;;;;;;6.27;nan;99664.66;4987869;28;20113;-72
2023/03/07 07:26:37;;;;;;;49.78;25.38;;;;;;;6.23;nan;99656.44;4987096;28;20062;-72
2023/03/07 07:29:03;;;;;;;50.60;25.55;;;;;;;6.38;nan;99671.81;4997217;28;20756;-73
2023/03/07 07:31:29;;;;;;;58.03;27.15;;;;;;;6.40;nan;99677.63;5002067;28;20034;-73
2023/03/07 07:33:54;;;;;;;52.75;24.65;;;;;;;6.34;nan;99666.19;4997611;28;20030;-72
2023/03/07 07:36:20;;;;;;;48.38;24.27;;;;;;;6.36;nan;99668.59;4998792;28;20026;-72
2023/03/07 07:38:45;;;;;;;52.92;25.92;;;;;;;6.38;nan;99662.13;4996235;28;20037;-72
2023/03/07 07:41:10;;;;;;;51.05;25.95;;;;;;;6.42;nan;99669.53;5000037;28;20026;-72
2023/03/07 07:43:36;;;;;;;55.15;26.17;;;;;;;6.44;nan;99670.97;4987706;28;20036;-72
2023/03/07 07:46:03;;;;;;;52.42;26.58;;;;;;;6.51;nan;99676.09;4995377;28;20105;-74
2023/03/07 07:48:30;;;;;;;56.15;26.40;;;;;;;6.47;nan;99665.28;4996314;28;20030;-71
2023/03/07 07:50:59;;;;;;;53.28;26.33;;;;;;;6.50;nan;99670.06;4987676;28;20030;-72
2023/03/07 07:53:24;;;;;;;53.30;25.88;;;;;;;6.51;nan;99670.88;4999292;28;20041;-72
2023/03/07 07:55:50;;;;;;;49.72;24.15;;;;;;;6.53;nan;99676.69;4998795;28;20053;-74
2023/03/07 07:58:15;;;;;;;46.65;23.42;;;;;;;6.44;nan;99660.50;4997325;28;20030;-72
2023/03/07 08:00:40;;;;;;;43.42;22.95;;;;;;;6.83;nan;99721.28;4983241;28;20064;-72
2023/03/07 08:03:06;;;;;;;48.50;23.40;;;;;;;6.49;nan;99668.50;5002750;28;20373;-72
2023/03/07 08:05:31;;;;;;;51.40;24.25;;;;;;;6.60;nan;99683.44;5003054;28;20392;-73
2023/03/07 08:07:56;;;;;;;49.58;24.88;;;;;;;6.56;nan;99671.84;4983232;28;20171;-73
2023/03/07 08:10:22;;;;;;;878.00;184.40;;;;;;;6.62;nan;99691.09;4999913;28;20149;-72
2023/03/07 08:12:52;;;;;;;74.53;33.00;;;;;;;6.74;nan;99681.50;4982649;28;20050;-72
2023/03/07 08:15:20;;;;;;;69.35;31.13;;;;;;;6.92;nan;99698.22;5000664;28;20136;-72
2023/03/07 08:17:47;;;;;;;59.10;28.55;;;;;;;6.81;nan;99699.75;5000793;28;20629;-72
2023/03/07 08:20:13;;;;;;;59.20;28.23;;;;;;;6.63;nan;99681.41;4996629;28;20050;-72
2023/03/07 08:22:38;;;;;;;56.88;28.15;;;;;;;6.74;nan;99699.81;4980925;28;20034;-72
2023/03/07 08:25:05;;;;;;;55.70;28.23;;;;;;;6.61;nan;99676.44;4999532;28;20080;-72
2023/03/07 08:27:31;;;;;;;57.45;27.73;;;;;;;6.77;nan;99699.38;5001505;28;20495;-72
2023/03/07 08:29:57;;;;;;;51.67;27.25;;;;;;;6.79;nan;99696.56;5003383;28;20030;-74
2023/03/07 08:32:22;;;;;;;48.75;24.83;;;;;;;6.84;nan;99707.16;5002262;28;20713;-74
2023/03/07 08:34:48;;;;;;;39.78;21.23;;;;;;;6.87;nan;99706.75;5001087;28;20029;-72
2023/03/07 08:37:13;;;;;;;34.83;18.77;;;;;;;6.82;nan;99691.72;4998241;28;20400;-72
2023/03/07 08:39:38;;;;;;;30.95;18.15;;;;;;;6.87;nan;99703.31;4993254;28;20109;-73
2023/03/07 08:42:04;;;;;;;31.13;17.10;;;;;;;6.89;nan;99707.31;5003701;28;20032;-73
2023/03/07 08:44:30;;;;;;;31.23;17.25;;;;;;;6.89;nan;99706.53;5002015;28;20529;-72
2023/03/07 08:46:55;;;;;;;30.05;16.05;;;;;;;6.85;nan;99694.88;5003592;28;20045;-72
2023/03/07 08:49:20;;;;;;;32.97;16.90;;;;;;;6.82;nan;99690.88;4990563;28;20502;-72
2023/03/07 08:51:46;;;;;;;34.03;17.50;;;;;;;6.93;nan;99698.03;5004021;28;20057;-72
2023/03/07 08:54:12;;;;;;;37.10;16.75;;;;;;;6.97;nan;99708.88;4982179;28;20042;-72
2023/03/07 08:56:37;;;;;;;31.90;16.80;;;;;;;6.87;nan;99688.44;4999719;28;20116;-72
2023/03/07 08:59:02;;;;;;;33.10;17.83;;;;;;;6.94;nan;99697.03;4990771;28;20037;-73
2023/03/07 09:01:28;;;;;;;34.53;18.70;;;;;;;6.98;nan;99703.41;5002529;28;20488;-72
2023/03/07 09:03:53;;;;;;;35.35;18.05;;;;;;;6.98;nan;99713.06;4997187;28;20030;-73
2023/03/07 09:06:19;;;;;;;32.88;17.45;;;;;;;6.95;nan;99711.69;5003028;28;20396;-71
2023/03/07 09:08:46;;;;;;;32.88;17.98;;;;;;;7.02;nan;99712.44;4998492;28;20181;-73
2023/03/07 09:11:12;;;;;;;37.08;19.25;;;;;;;6.85;nan;99687.84;4990312;28;20026;-72
2023/03/07 09:13:38;;;;;;;39.03;19.27;;;;;;;7.02;nan;99720.28;5003282;28;20031;-72
2023/03/07 09:16:05;;;;;;;40.05;19.63;;;;;;;7.00;nan;99714.47;5003496;28;20044;-72
2023/03/07 09:18:30;;;;;;;39.00;20.90;;;;;;;7.05;nan;99700.72;4981141;28;20030;-72
2023/03/07 09:20:58;;;;;;;44.97;23.85;;;;;;;7.02;nan;99698.53;4983016;28;20583;-73
2023/03/07 09:23:24;;;;;;;37.55;20.27;;;;;;;7.15;nan;99713.28;5000885;28;20105;-74
2023/03/07 09:25:49;;;;;;;36.67;18.95;;;;;;;7.14;nan;99703.84;5000436;28;20221;-73
2023/03/07 09:28:15;;;;;;;37.38;19.63;;;;;;;7.16;nan;99696.53;5001217;28;20289;-73
2023/03/07 09:30:40;;;;;;;37.15;18.95;;;;;;;7.22;nan;99706.94;5002560;28;20030;-73
2023/03/07 09:33:05;;;;;;;35.97;19.23;;;;;;;7.16;nan;99692.13;5002601;28;20030;-73
2023/03/07 09:35:31;;;;;;;42.25;20.42;;;;;;;7.20;nan;99695.09;4989695;28;20469;-73
2023/03/07 09:37:56;;;;;;;39.25;19.52;;;;;;;7.27;nan;99693.19;4999550;28;20998;-73
2023/03/07 09:40:25;;;;;;;38.58;18.73;;;;;;;7.26;nan;99703.91;4999964;28;20391;-73
2023/03/07 09:43:05;;;;;;;34.28;17.80;;;;;;;7.26;nan;99702.09;4999331;28;20104;-72
2023/03/07 09:45:30;;;;;;;34.85;17.73;;;;;;;7.37;nan;99711.81;4980355;28;20477;-72
2023/03/07 09:48:35;;;;;;;33.55;17.83;;;;;;;7.36;nan;99710.22;4999263;28;20037;-71
2023/03/07 09:51:06;;;;;;;30.60;16.33;;;;;;;7.36;nan;99709.44;4996645;28;20034;-72
2023/03/07 09:53:36;;;;;;;32.13;17.10;;;;;;;7.38;nan;99708.19;5001056;28;20057;-74
2023/03/07 09:56:07;;;;;;;31.58;16.98;;;;;;;7.37;nan;99703.16;4978944;28;20038;-74
2023/03/07 09:58:37;;;;;;;36.25;18.17;;;;;;;7.32;nan;99695.97;5002077;28;20111;-73
2023/03/07 10:01:06;;;;;;;35.47;18.60;;;;;;;7.31;nan;99683.91;5000698;28;20048;-74
2023/03/07 10:03:55;;;;;;;;;;;;;;;7.37;nan;99703.94;5001898;28;20473;-73
2023/03/07 10:06:38;;;;;;;34.45;16.67;;;;;;;7.33;nan;99702.81;4999136;28;19917;-74
2023/03/07 10:09:16;;;;;;;39.53;18.75;;;;;;;7.23;nan;99678.94;4960641;28;20070;-74
2023/03/07 10:11:59;;;;;;;40.60;19.92;;;;;;;7.37;nan;99695.28;4966920;28;20170;-73
2023/03/07 10:14:35;;;;;;;39.28;19.27;;;;;;;7.38;nan;99700.31;4960977;28;20033;-74
2023/03/07 10:17:21;;;;;;;38.40;19.45;;;;;;;7.41;nan;99699.06;4957192;28;20765;-75
2023/03/07 10:19:51;;;;;;;41.10;20.00;;;;;;;7.34;nan;99680.81;4961882;28;20030;-74
2023/03/07 10:22:44;;;;;;;39.88;20.48;;;;;;;7.46;nan;99686.91;4958708;28;20020;-73
2023/03/07 10:25:28;;;;;;;40.92;20.17;;;;;;;7.52;nan;99684.41;4955747;28;20039;-74
2023/03/07 10:28:01;;;;;;;38.13;20.17;;;;;;;7.55;nan;99684.78;4953551;28;20038;-73
2023/03/07 10:30:31;;;;;;;39.00;21.10;;;;;;;7.53;nan;99681.59;4958019;28;20037;-73
2023/03/07 10:32:59;;;;;;;38.72;20.73;;;;;;;7.60;nan;99687.53;4956986;28;20042;-74
2023/03/07 10:35:39;;;;;;;44.03;22.48;;;;;;;7.49;nan;99664.72;4963014;28;20034;-73
2023/03/07 10:38:14;;;;;;;45.42;22.50;;;;;;;7.69;nan;99685.41;4958508;28;20038;-73
2023/03/07 10:40:56;;;;;;;39.67;21.25;;;;;;;7.72;nan;99684.16;4959736;28;20020;-73
2023/03/07 10:43:28;;;;;;;40.10;21.17;;;;;;;7.65;nan;99669.31;4958232;28;20085;-73
2023/03/07 10:46:11;;;;;;;40.05;21.58;;;;;;;7.81;nan;99680.22;4956876;28;20038;-73
2023/03/07 10:49:06;;;;;;;38.90;21.48;;;;;;;7.73;nan;99668.19;4957846;28;20109;-74
2023/03/07 10:52:02;;;;;;;36.15;19.50;;;;;;;7.86;nan;99680.31;4948712;28;20039;-73
2023/03/07 10:54:33;;;;;;;37.65;20.67;;;;;;;7.92;nan;99679.41;4944215;28;20051;-73
2023/03/07 10:57:13;;;;;;;33.88;19.20;;;;;;;8.02;nan;99689.34;4958265;28;20038;-73
2023/03/07 10:59:44;;;;;;;32.05;18.35;;;;;;;8.02;nan;99679.69;4957599;28;20036;-70
2023/03/07 11:02:30;;;;;;;33.78;18.73;;;;;;;8.12;nan;99694.03;4960242;28;20094;-73
2023/03/07 11:04:56;;;;;;;31.60;18.08;;;;;;;8.07;nan;99679.00;4962695;28;20045;-74
2023/03/07 11:07:27;;;;;;;36.67;18.98;;;;;;;8.06;nan;99686.06;4973174;28;20057;-73
2023/03/07 11:09:54;;;;;;;29.83;16.88;;;;;;;8.14;nan;99692.00;4999239;28;20038;-74
2023/03/07 11:12:21;;;;;;;26.75;15.43;;;;;;;8.17;nan;99681.88;4988425;28;20046;-73
2023/03/07 11:14:52;;;;;;;30.33;16.70;;;;;;;8.20;nan;99686.66;4993246;28;20060;-73
2023/03/07 11:17:26;;;;;;;24.23;14.18;;;;;;;8.06;nan;99672.16;4998938;28;20029;-74
2023/03/07 11:19:56;;;;;;;27.10;15.65;;;;;;;8.16;nan;99679.47;5001030;28;20038;-73
2023/03/07 11:22:32;;;;;;;27.33;14.82;;;;;;;8.15;nan;99683.13;4978488;28;20037;-73
2023/03/07 11:25:17;;;;;;;27.50;15.52;;;;;;;8.09;nan;99671.69;4980582;28;20057;-73
2023/03/07 11:27:46;;;;;;;27.05;15.88;;;;;;;8.10;nan;99668.06;4997863;28;20032;-73
2023/03/07 11:30:24;;;;;;;28.63;17.45;;;;;;;8.07;nan;99663.28;4998340;28;20471;-73
2023/03/07 11:32:57;;;;;;;26.98;16.45;;;;;;;8.02;nan;99650.84;5005719;28;20125;-73
2023/03/07 11:35:33;;;;;;;31.85;17.15;;;;;;;8.08;nan;99652.53;4994846;28;20026;-73
2023/03/07 11:38:27;;;;;;;29.90;16.98;;;;;;;7.81;nan;99599.75;5003786;28;20045;-72
2023/03/07 11:41:06;;;;;;;24.90;14.88;;;;;;;8.13;nan;99636.13;4992447;28;20053;-72
2023/03/07 11:43:44;;;;;;;22.33;13.63;;;;;;;7.83;nan;99586.44;5003702;28;20496;-72
2023/03/07 11:46:19;;;;;;;23.85;14.70;;;;;;;8.10;nan;99628.72;4999793;28;20128;-72
2023/03/07 11:49:08;;;;;;;21.48;12.82;;;;;;;8.13;nan;99619.59;5000964;28;20079;-72
2023/03/07 11:51:53;;;;;;;24.48;13.80;;;;;;;8.15;nan;99607.88;5003832;28;20032;-72
2023/03/07 11:54:38;;;;;;;27.25;15.30;;;;;;;8.15;nan;99604.44;5002145;28;20041;-73
2023/03/07 11:57:45;;;;;;;24.70;14.60;;;;;;;8.21;nan;99604.34;4984164;28;20042;-72
2023/03/07 12:00:22;;;;;;;21.98;13.60;;;;;;;8.14;nan;99584.47;5003755;28;20040;-71
2023/03/07 12:02:50;;;;;;;22.50;13.50;;;;;;;8.31;nan;99603.75;4985965;28;20076;-73
2023/03/07 12:05:18;;;;;;;25.20;13.80;;;;;;;8.34;nan;99598.06;5000621;28;20646;-72
2023/03/07 12:07:58;;;;;;;23.52;14.40;;;;;;;8.38;nan;99604.44;4997480;28;20062;-71
2023/03/07 12:10:37;;;;;;;27.80;14.93;;;;;;;8.46;nan;99595.44;4983233;28;20031;-72
2023/03/07 12:13:11;;;;;;;23.30;14.00;;;;;;;8.48;nan;99604.69;4982764;28;20089;-73
2023/03/07 12:15:51;;;;;;;24.17;12.85;;;;;;;8.20;nan;99560.75;4981033;28;20026;-73
2023/03/07 12:18:29;;;;;;;23.27;12.95;;;;;;;8.47;nan;99595.19;4980698;28;20034;-72
2023/03/07 12:21:17;;;;;;;18.58;11.00;;;;;;;8.40;nan;99583.22;4983042;28;20049;-73
2023/03/07 12:24:05;;;;;;;18.70;10.47;;;;;;;8.55;nan;99604.56;4981169;28;20124;-73